Time;durP1;ratioP1;P1;durP2;ratioP2;P2;SDS_P1;SDS_P2;PMS_P1;PMS_P2;Temp;Humidity;BMP_temperature;BMP_pressure;BME280_temperature;BME280_humidity;BME280_pressure;Samples;Min_cycle;Max_cycle;Signal;HPM_P1;HPM_P2
2022/06/29 00:01:55;;;;;;;10.10;5.70;;;;;;;19.11;63.97;101135.64;107287;1250;59475;-70
2022/06/29 00:04:24;;;;;;;13.50;5.90;;;;;;;19.10;63.74;101135.53;107272;1247;63593;-71
2022/06/29 00:06:53;;;;;;;11.60;5.90;;;;;;;19.11;63.24;101135.96;107223;1250;59608;-70
2022/06/29 00:09:22;;;;;;;10.70;5.60;;;;;;;19.11;62.76;101136.30;107201;1249;59536;-69
2022/06/29 00:11:51;;;;;;;15.90;5.20;;;;;;;19.09;63.09;101139.94;107347;1246;63798;-70
2022/06/29 00:14:20;;;;;;;13.10;6.20;;;;;;;19.06;64.16;101140.02;107327;1248;71544;-69
2022/06/29 00:16:48;;;;;;;18.60;6.40;;;;;;;19.08;63.97;101138.28;107291;1249;70918;-71
2022/06/29 00:19:17;;;;;;;11.50;5.80;;;;;;;19.04;63.90;101138.08;107352;1247;73664;-70
2022/06/29 00:21:46;;;;;;;13.10;5.50;;;;;;;19.01;64.74;101139.09;107257;1250;61762;-70
2022/06/29 00:24:15;;;;;;;12.90;5.10;;;;;;;18.94;64.03;101140.91;107230;1250;59293;-68
2022/06/29 00:26:44;;;;;;;9.90;5.00;;;;;;;18.80;64.49;101144.25;107348;1248;63393;-68
2022/06/29 00:29:13;;;;;;;18.70;5.50;;;;;;;18.64;66.39;101144.60;107177;1248;61655;-68
2022/06/29 00:31:42;;;;;;;14.10;4.80;;;;;;;18.56;66.82;101145.92;107284;1247;60277;-69
2022/06/29 00:34:11;;;;;;;9.10;4.60;;;;;;;18.48;67.08;101138.70;107300;1247;74459;-69
2022/06/29 00:36:40;;;;;;;9.40;4.90;;;;;;;18.43;67.43;101140.48;107308;1247;63495;-70
2022/06/29 00:39:09;;;;;;;9.70;5.00;;;;;;;18.40;67.67;101138.54;107240;1250;59894;-68
2022/06/29 00:41:43;;;;;;;7.80;4.70;;;;;;;18.36;67.94;101145.11;107296;1247;74369;-69
2022/06/29 00:44:17;;;;;;;10.30;4.70;;;;;;;18.32;67.77;101140.17;107351;1247;70435;-70
2022/06/29 00:46:50;;;;;;;8.90;5.00;;;;;;;18.28;68.09;101136.14;107332;1247;59482;-71
2022/06/29 00:49:21;;;;;;;10.60;5.30;;;;;;;18.21;68.14;101139.09;107299;1247;73094;-71
2022/06/29 00:52:01;;;;;;;6.40;4.90;;;;;;;18.14;68.91;101141.77;107292;1247;62814;-69
2022/06/29 00:54:53;;;;;;;11.60;4.70;;;;;;;18.07;68.82;101147.14;107290;1247;59578;-70
2022/06/29 00:57:25;;;;;;;11.00;5.80;;;;;;;18.07;68.80;101144.39;107328;1247;74479;-69
2022/06/29 00:59:57;;;;;;;13.10;5.60;;;;;;;18.14;68.54;101138.21;107366;1247;61782;-72
2022/06/29 01:02:32;;;;;;;14.60;4.90;;;;;;;18.15;68.83;101144.83;107289;1247;69979;-68
2022/06/29 01:05:04;;;;;;;12.20;5.00;;;;;;;18.14;68.82;101150.34;107230;1248;73689;-69
2022/06/29 01:07:33;;;;;;;;;;;;;;;18.13;68.82;101144.11;108376;1247;61102;-69
2022/06/29 01:10:03;;;;;;;7.30;5.10;;;;;;;18.14;68.73;101143.83;107407;1247;59045;-70
2022/06/29 01:12:32;;;;;;;9.50;5.30;;;;;;;18.14;68.67;101144.95;107481;1247;62825;-69
2022/06/29 01:15:01;;;;;;;10.00;4.90;;;;;;;18.12;68.78;101143.15;107446;1247;61101;-70
2022/06/29 01:17:30;;;;;;;8.80;5.20;;;;;;;18.09;68.85;101147.84;107344;1247;67954;-70
2022/06/29 01:19:59;;;;;;;9.00;5.30;;;;;;;18.05;68.84;101152.89;107379;1248;64161;-69
2022/06/29 01:22:28;;;;;;;12.40;5.00;;;;;;;17.95;69.27;101148.12;107300;1247;61378;-70
2022/06/29 01:24:57;;;;;;;11.30;4.60;;;;;;;17.88;69.63;101149.36;107414;1247;59814;-72
2022/06/29 01:27:26;;;;;;;6.50;5.00;;;;;;;17.82;69.69;101153.84;107314;1247;75345;-70
2022/06/29 01:29:55;;;;;;;8.10;4.90;;;;;;;17.75;69.63;101153.94;107425;1247;72552;-70
2022/06/29 01:32:24;;;;;;;9.30;5.00;;;;;;;17.67;68.66;101159.45;107489;1247;70154;-72
2022/06/29 01:34:53;;;;;;;14.40;5.50;;;;;;;17.53;68.71;101167.29;107346;1249;62955;-73
2022/06/29 01:37:22;;;;;;;9.20;5.40;;;;;;;17.38;70.45;101167.84;107432;1247;61261;-75
2022/06/29 01:39:51;;;;;;;11.50;5.20;;;;;;;17.30;71.38;101163.70;107519;1247;60676;-69
2022/06/29 01:42:20;;;;;;;10.10;4.90;;;;;;;17.25;70.48;101165.35;107507;1246;73592;-72
2022/06/29 01:44:49;;;;;;;15.30;5.50;;;;;;;17.20;71.55;101167.98;107486;1247;71685;-72
2022/06/29 01:47:18;;;;;;;7.40;5.20;;;;;;;17.14;71.42;101165.64;107453;1247;72153;-72
2022/06/29 01:49:46;;;;;;;10.70;5.00;;;;;;;17.12;72.04;101168.89;107509;1247;73114;-71
2022/06/29 01:52:15;;;;;;;6.60;4.70;;;;;;;17.09;71.66;101167.79;107618;1247;62695;-67
2022/06/29 01:54:44;;;;;;;10.70;5.40;;;;;;;17.06;70.32;101170.31;107622;1247;61055;-75
2022/06/29 01:57:13;;;;;;;7.30;5.10;;;;;;;17.01;70.87;101167.11;107638;1247;71582;-74
2022/06/29 01:59:43;;;;;;;10.00;5.20;;;;;;;16.98;70.27;101165.42;107387;1250;69572;-74
2022/06/29 02:02:12;;;;;;;12.20;5.40;;;;;;;17.04;70.44;101171.07;107765;1247;67163;-69
2022/06/29 02:04:41;;;;;;;9.40;5.10;;;;;;;17.12;70.42;101175.06;107676;1248;72112;-78
2022/06/29 02:07:10;;;;;;;11.40;5.30;;;;;;;17.19;70.84;101184.41;107448;1247;62764;-74
2022/06/29 02:09:39;;;;;;;11.40;5.40;;;;;;;17.22;71.88;101183.39;107501;1247;60798;-69
2022/06/29 02:12:11;;;;;;;11.30;5.20;;;;;;;17.22;72.01;101178.97;107615;1248;74639;-69
2022/06/29 02:14:40;;;;;;;12.80;5.90;;;;;;;17.24;71.87;101179.39;107796;1247;71029;-70
2022/06/29 02:17:09;;;;;;;9.80;5.40;;;;;;;17.23;71.62;101177.63;107735;1247;68722;-74
2022/06/29 02:19:38;;;;;;;11.20;5.30;;;;;;;17.21;71.60;101176.67;107392;1248;73657;-72
2022/06/29 02:22:07;;;;;;;16.30;5.50;;;;;;;17.16;72.07;101175.33;107368;1248;61247;-69
2022/06/29 02:24:36;;;;;;;8.40;4.90;;;;;;;17.14;71.85;101174.34;107315;1247;59673;-69
2022/06/29 02:27:05;;;;;;;9.50;5.10;;;;;;;17.14;72.24;101172.73;107362;1248;71394;-69
2022/06/29 02:29:34;;;;;;;10.00;5.30;;;;;;;17.15;71.87;101170.66;107359;1248;68925;-71
2022/06/29 02:34:51;;;;;;;16.80;5.80;;;;;;;17.17;72.24;101175.79;107369;1248;71857;-72
2022/06/29 02:37:20;;;;;;;7.30;5.30;;;;;;;17.21;72.34;101177.52;107275;1248;60568;-72
2022/06/29 02:39:49;;;;;;;9.50;5.30;;;;;;;17.26;72.12;101184.30;107292;1247;60003;-71
2022/06/29 02:42:19;;;;;;;12.90;5.60;;;;;;;17.29;71.92;101187.35;107221;1249;71703;-68
2022/06/29 02:44:48;;;;;;;13.00;5.50;;;;;;;17.33;72.02;101191.34;107194;1250;72439;-70
2022/06/29 02:47:18;;;;;;;24.40;6.00;;;;;;;17.38;71.81;101195.54;107410;1248;71528;-70
2022/06/29 02:49:47;;;;;;;16.20;5.80;;;;;;;17.41;70.80;101193.80;107525;1247;72272;-70
2022/06/29 02:52:16;;;;;;;13.80;5.60;;;;;;;17.42;71.16;101194.72;107372;1248;62106;-72
2022/06/29 02:54:44;;;;;;;12.60;5.70;;;;;;;17.44;70.40;101195.77;107572;1248;60305;-71
2022/06/29 02:57:13;;;;;;;16.80;5.30;;;;;;;17.45;70.67;101195.34;107394;1248;74686;-72
2022/06/29 02:59:42;;;;;;;16.90;5.50;;;;;;;17.47;71.42;101201.31;107390;1247;69379;-69
2022/06/29 03:02:11;;;;;;;20.40;6.20;;;;;;;17.51;71.49;101199.91;107383;1247;68003;-71
2022/06/29 03:04:40;;;;;;;13.00;6.40;;;;;;;17.58;71.27;101204.70;107451;1247;73533;-70
2022/06/29 03:07:09;;;;;;;16.90;5.80;;;;;;;17.63;71.13;101208.61;107450;1247;63424;-71
2022/06/29 03:09:38;;;;;;;14.50;6.70;;;;;;;17.74;69.99;101208.52;107420;1247;62424;-71
2022/06/29 03:12:07;;;;;;;12.60;6.90;;;;;;;17.80;68.90;101200.89;107351;1250;73611;-69
2022/06/29 03:14:36;;;;;;;14.70;6.40;;;;;;;17.76;68.63;101196.52;107604;1247;71021;-71
2022/06/29 03:17:05;;;;;;;12.70;6.00;;;;;;;17.71;68.64;101195.38;107514;1247;70102;-70
2022/06/29 03:19:34;;;;;;;15.10;8.40;;;;;;;17.66;69.01;101196.70;107438;1247;73942;-74
2022/06/29 03:22:03;;;;;;;12.60;6.90;;;;;;;17.70;69.23;101193.87;107572;1248;60915;-72
2022/06/29 03:24:32;;;;;;;18.10;7.20;;;;;;;17.82;68.42;101188.17;107546;1247;58937;-73
2022/06/29 03:27:01;;;;;;;17.80;8.40;;;;;;;17.90;68.34;101187.80;107480;1247;72676;-72
2022/06/29 03:29:30;;;;;;;12.60;7.70;;;;;;;18.00;68.37;101183.32;107506;1247;61514;-72
2022/06/29 03:31:59;;;;;;;11.90;7.00;;;;;;;18.11;67.69;101181.17;107468;1247;67983;-66
2022/06/29 03:34:28;;;;;;;10.50;6.40;;;;;;;18.14;67.61;101177.40;107463;1248;63277;-67
2022/06/29 03:36:57;;;;;;;13.60;7.10;;;;;;;18.12;67.67;101175.60;107504;1247;60998;-68
2022/06/29 03:39:26;;;;;;;15.20;5.90;;;;;;;18.07;67.86;101178.55;107373;1248;60652;-69
2022/06/29 03:41:54;;;;;;;12.90;6.70;;;;;;;18.12;67.83;101184.98;107213;1247;75272;-68
2022/06/29 03:44:23;;;;;;;17.30;6.30;;;;;;;18.14;67.91;101187.42;107497;1248;63635;-69
2022/06/29 03:46:52;;;;;;;17.20;7.10;;;;;;;18.17;68.05;101183.20;107607;1248;71424;-67
2022/06/29 03:49:21;;;;;;;12.40;6.30;;;;;;;18.22;67.94;101181.86;107556;1247;74828;-68
2022/06/29 03:51:51;;;;;;;12.40;5.80;;;;;;;18.24;67.72;101180.26;107378;1247;62793;-69
2022/06/29 03:54:19;;;;;;;18.40;6.60;;;;;;;18.33;67.82;101173.02;107413;1248;60317;-69
2022/06/29 03:56:48;;;;;;;9.90;5.50;;;;;;;18.39;67.70;101171.24;107405;1248;75247;-71
2022/06/29 03:59:17;;;;;;;13.70;7.10;;;;;;;18.39;67.91;101177.91;107397;1247;62008;-71
2022/06/29 04:01:46;;;;;;;13.70;6.60;;;;;;;18.38;68.15;101176.55;107317;1248;69840;-72
2022/06/29 04:04:15;;;;;;;12.20;6.20;;;;;;;18.37;68.43;101179.33;107463;1248;74731;-72
2022/06/29 04:06:44;;;;;;;14.70;6.70;;;;;;;18.42;68.35;101181.73;107059;1247;718799;-68
2022/06/29 04:09:13;;;;;;;12.70;7.20;;;;;;;18.47;68.31;101181.13;107670;1246;62421;-69
2022/06/29 04:11:54;;;;;;;19.20;6.80;;;;;;;18.52;68.09;101184.88;107589;1248;74543;-70
2022/06/29 04:14:28;;;;;;;10.10;6.20;;;;;;;18.68;67.83;101182.33;107544;1247;71947;-69
2022/06/29 04:16:58;;;;;;;12.00;7.00;;;;;;;18.80;67.67;101185.52;107681;1248;70251;-70
2022/06/29 04:19:27;;;;;;;15.10;6.80;;;;;;;18.93;67.46;101185.82;107602;1247;74746;-68
2022/06/29 04:21:56;;;;;;;9.70;6.30;;;;;;;19.05;66.82;101191.45;107526;1247;62401;-68
2022/06/29 04:24:24;;;;;;;11.70;6.60;;;;;;;19.08;66.62;101180.60;107585;1248;60482;-70
2022/06/29 04:26:53;;;;;;;13.80;6.40;;;;;;;19.22;66.22;101188.48;107655;1248;64558;-70
2022/06/29 04:29:22;;;;;;;12.30;6.50;;;;;;;19.34;65.73;101185.35;107324;1251;61014;-70
2022/06/29 04:31:51;;;;;;;9.40;5.70;;;;;;;19.44;65.30;101183.24;107491;1247;59174;-71
2022/06/29 04:34:20;;;;;;;11.50;6.40;;;;;;;19.54;64.92;101186.43;107470;1247;63228;-69
2022/06/29 04:36:51;;;;;;;14.70;6.60;;;;;;;19.63;64.64;101185.94;107342;1250;60551;-71
2022/06/29 04:39:20;;;;;;;16.30;6.40;;;;;;;19.72;64.32;101190.11;107573;1250;59030;-71
2022/06/29 04:41:52;;;;;;;8.50;6.20;;;;;;;19.88;63.83;101192.57;107454;1248;63825;-71
2022/06/29 04:44:22;;;;;;;12.10;6.80;;;;;;;19.99;63.44;101188.54;107400;1249;60675;-71
2022/06/29 04:46:51;;;;;;;12.40;5.50;;;;;;;20.12;63.18;101189.70;107507;1247;71431;-69
2022/06/29 04:49:20;;;;;;;10.20;6.30;;;;;;;20.27;62.48;101187.89;107497;1250;64220;-69
2022/06/29 04:51:49;;;;;;;8.40;6.10;;;;;;;20.40;61.82;101187.45;107568;1247;59603;-72
2022/06/29 04:54:18;;;;;;;9.20;5.70;;;;;;;20.50;61.17;101184.45;107498;1250;59542;-74
2022/06/29 04:56:47;;;;;;;10.10;5.80;;;;;;;20.59;60.83;101186.14;107618;1247;74418;-71
2022/06/29 04:59:15;;;;;;;14.00;6.90;;;;;;;20.68;60.79;101183.77;107538;1250;62266;-70
2022/06/29 05:01:47;;;;;;;10.70;6.00;;;;;;;20.81;60.40;101182.10;107625;1247;60024;-70
2022/06/29 05:04:16;;;;;;;14.10;6.00;;;;;;;20.97;59.64;101182.00;107649;1248;63082;-71
2022/06/29 05:06:45;;;;;;;10.60;4.80;;;;;;;21.20;58.03;101183.57;107684;1250;60503;-73
2022/06/29 05:09:13;;;;;;;10.30;5.00;;;;;;;21.35;56.92;101182.16;107565;1248;61178;-69
2022/06/29 05:11:42;;;;;;;11.50;5.00;;;;;;;21.49;56.43;101183.20;107484;1250;64137;-68
2022/06/29 05:14:11;;;;;;;12.00;5.10;;;;;;;21.63;56.65;101182.48;107291;1251;70938;-77
2022/06/29 05:16:39;;;;;;;11.00;5.60;;;;;;;21.83;55.80;101185.04;107572;1248;71131;-73
2022/06/29 05:19:10;;;;;;;8.60;5.70;;;;;;;22.00;54.93;101187.76;107539;1251;63841;-76
2022/06/29 05:21:38;;;;;;;12.40;5.60;;;;;;;22.11;55.05;101189.14;107557;1250;61352;-75
2022/06/29 05:24:07;;;;;;;10.90;6.10;;;;;;;22.26;55.11;101190.06;107571;1251;57953;-74
2022/06/29 05:26:39;;;;;;;7.10;4.70;;;;;;;22.49;53.62;101194.04;107385;1248;74405;-76
2022/06/29 05:29:08;;;;;;;9.70;5.20;;;;;;;22.63;52.67;101194.34;107350;1251;62158;-73
2022/06/29 05:31:37;;;;;;;8.90;5.20;;;;;;;22.71;53.10;101192.39;107341;1247;70535;-75
2022/06/29 05:34:05;;;;;;;11.00;5.00;;;;;;;22.85;52.90;101188.19;107399;1250;74505;-75
2022/06/29 05:36:34;;;;;;;11.70;5.60;;;;;;;22.95;52.50;101185.11;107372;1251;59675;-73
2022/06/29 05:39:03;;;;;;;15.50;5.70;;;;;;;23.06;52.15;101184.35;107349;1248;57885;-77
2022/06/29 05:41:32;;;;;;;8.90;5.20;;;;;;;23.22;51.98;101188.27;107401;1247;74409;-76
2022/06/29 05:44:02;;;;;;;7.80;4.80;;;;;;;23.27;51.97;101189.48;106977;1249;72617;-72
2022/06/29 05:46:32;;;;;;;9.80;5.90;;;;;;;23.36;51.75;101185.83;107149;1251;70322;-73
2022/06/29 05:49:03;;;;;;;14.00;5.80;;;;;;;23.45;51.77;101182.18;107438;1247;74508;-73
2022/06/29 05:51:32;;;;;;;9.10;4.60;;;;;;;23.60;50.76;101182.69;107600;1247;61063;-76
2022/06/29 05:54:01;;;;;;;8.30;4.70;;;;;;;23.79;50.95;101185.27;107366;1251;60547;-74
2022/06/29 05:56:30;;;;;;;9.20;4.80;;;;;;;23.89;50.73;101186.36;107533;1248;64820;-74
2022/06/29 05:58:59;;;;;;;10.10;5.20;;;;;;;24.06;50.87;101185.34;107525;1247;72223;-75
2022/06/29 06:01:28;;;;;;;11.10;5.30;;;;;;;24.21;50.24;101182.97;107165;1251;69968;-73
2022/06/29 06:03:56;;;;;;;11.90;5.40;;;;;;;24.32;49.77;101183.21;107445;1248;74307;-73
2022/06/29 06:06:25;;;;;;;11.10;4.90;;;;;;;24.48;49.84;101184.98;107301;1251;58002;-75
2022/06/29 06:08:54;;;;;;;11.70;5.40;;;;;;;24.62;49.25;101185.58;107513;1250;57745;-75
2022/06/29 06:11:24;;;;;;;11.30;5.20;;;;;;;24.70;49.55;101184.73;107490;1250;75559;-73
2022/06/29 06:13:53;;;;;;;10.50;5.20;;;;;;;24.86;48.85;101185.70;107543;1247;71398;-76
2022/06/29 06:16:22;;;;;;;14.00;5.40;;;;;;;24.98;48.51;101184.95;107028;1250;60030;-73
2022/06/29 06:19:08;;;;;;;8.30;5.20;;;;;;;25.14;48.24;101180.44;107512;1246;74385;-75
2022/06/29 06:21:36;;;;;;;11.80;5.30;;;;;;;25.33;48.20;101178.34;107565;1248;61053;-74
2022/06/29 06:24:06;;;;;;;12.70;5.20;;;;;;;25.49;47.93;101172.47;107407;1250;59534;-75
2022/06/29 06:26:34;;;;;;;9.90;4.80;;;;;;;25.67;47.31;101168.61;107449;1250;64626;-77
2022/06/29 06:29:03;;;;;;;10.80;5.10;;;;;;;25.83;46.79;101165.25;107310;1250;60897;-75
2022/06/29 06:31:32;;;;;;;10.80;5.00;;;;;;;25.98;46.71;101159.30;107319;1248;70619;-76
2022/06/29 06:34:01;;;;;;;12.60;5.20;;;;;;;26.10;46.77;101160.06;107310;1247;74248;-79
2022/06/29 06:36:30;;;;;;;11.80;4.70;;;;;;;26.29;46.94;101159.58;107423;1248;61677;-74
2022/06/29 06:38:59;;;;;;;7.90;4.70;;;;;;;26.48;46.18;101155.55;107598;1247;60969;-77
2022/06/29 06:41:27;;;;;;;11.00;5.00;;;;;;;26.64;45.98;101148.34;107265;1251;73535;-77
2022/06/29 06:43:59;;;;;;;10.70;5.10;;;;;;;26.81;45.18;101145.54;107497;1251;61630;-80
2022/06/29 06:46:29;;;;;;;8.50;4.40;;;;;;;26.99;44.56;101138.42;107525;1250;60394;-75
2022/06/29 06:48:57;;;;;;;7.90;5.20;;;;;;;27.11;44.26;101128.74;107514;1249;74185;-76
2022/06/29 06:51:27;;;;;;;9.60;5.00;;;;;;;27.21;44.45;101124.89;107829;1247;60619;-76
2022/06/29 06:53:56;;;;;;;12.30;5.10;;;;;;;27.36;43.57;101121.55;107632;1246;62048;-74
2022/06/29 06:56:25;;;;;;;11.20;5.20;;;;;;;27.53;44.22;101120.04;107664;1247;64226;-75
2022/06/29 06:58:54;;;;;;;7.40;4.90;;;;;;;27.76;44.07;101118.68;107754;1247;71390;-79
2022/06/29 07:01:23;;;;;;;10.50;5.30;;;;;;;27.97;43.18;101112.21;107655;1247;60536;-76
2022/06/29 07:03:52;;;;;;;11.60;5.70;;;;;;;28.19;42.14;101106.04;107700;1247;71181;-75
2022/06/29 07:06:21;;;;;;;7.10;4.80;;;;;;;28.24;41.89;101102.40;107546;1247;61797;-75
2022/06/29 07:08:49;;;;;;;9.70;5.10;;;;;;;28.45;42.15;101099.84;107659;1247;61626;-74
2022/06/29 07:11:18;;;;;;;7.00;4.20;;;;;;;28.64;41.36;101101.35;107672;1248;64418;-76
2022/06/29 07:13:47;;;;;;;8.20;4.60;;;;;;;28.82;40.77;101101.27;107730;1247;61517;-72
2022/06/29 07:16:16;;;;;;;7.40;4.30;;;;;;;28.95;40.68;101103.40;107656;1247;69700;-75
2022/06/29 07:18:44;;;;;;;7.00;4.20;;;;;;;29.12;39.78;101098.89;107435;1248;73725;-74
2022/06/29 07:21:13;;;;;;;7.40;3.80;;;;;;;29.24;39.67;101093.52;107564;1247;59599;-77
2022/06/29 07:23:42;;;;;;;7.10;4.00;;;;;;;29.39;39.64;101085.29;107710;1247;57867;-76
2022/06/29 07:26:11;;;;;;;4.30;3.30;;;;;;;29.57;38.58;101082.30;107696;1247;74411;-74
2022/06/29 07:28:39;;;;;;;8.40;4.50;;;;;;;29.68;38.11;101075.81;107604;1247;71802;-74
2022/06/29 07:31:08;;;;;;;5.60;4.10;;;;;;;29.75;38.53;101083.17;107547;1248;59668;-76
2022/06/29 07:33:37;;;;;;;7.50;4.50;;;;;;;29.88;38.12;101085.73;107732;1247;63282;-77
2022/06/29 07:36:06;;;;;;;6.20;4.50;;;;;;;30.04;37.77;101084.86;107358;1250;59548;-77
2022/06/29 07:38:35;;;;;;;5.60;3.90;;;;;;;30.14;37.47;101078.66;107559;1248;59533;-78
2022/06/29 07:41:04;;;;;;;7.50;4.50;;;;;;;30.24;37.47;101078.05;107562;1247;62977;-76
2022/06/29 07:43:33;;;;;;;5.30;4.10;;;;;;;30.31;37.61;101067.10;107318;1251;61665;-76
2022/06/29 07:46:02;;;;;;;8.10;4.50;;;;;;;30.42;37.38;101061.77;107689;1248;69176;-74
2022/06/29 07:48:31;;;;;;;6.00;4.40;;;;;;;30.53;37.52;101064.20;107697;1247;73826;-75
2022/06/29 07:50:59;;;;;;;5.00;4.30;;;;;;;30.66;36.90;101063.47;107592;1247;61586;-72
2022/06/29 07:53:29;;;;;;;9.30;4.50;;;;;;;30.73;36.87;101060.67;107679;1247;61470;-75
2022/06/29 07:55:58;;;;;;;6.30;4.70;;;;;;;30.85;36.46;101062.20;107773;1247;64100;-73
2022/06/29 07:58:27;;;;;;;4.60;4.00;;;;;;;30.86;36.48;101056.54;107656;1247;70985;-74
2022/06/29 08:00:56;;;;;;;6.90;4.90;;;;;;;30.95;36.64;101050.80;107672;1248;72636;-76
2022/06/29 08:03:25;;;;;;;8.80;4.70;;;;;;;31.01;36.56;101047.95;107708;1247;63592;-74
2022/06/29 08:05:54;;;;;;;6.30;4.50;;;;;;;31.13;36.14;101047.56;107746;1247;59618;-75
2022/06/29 08:08:22;;;;;;;8.30;4.70;;;;;;;31.30;35.29;101050.40;107744;1246;61804;-76
2022/06/29 08:10:51;;;;;;;6.20;4.80;;;;;;;31.31;35.87;101048.64;107758;1247;64355;-74
2022/06/29 08:13:20;;;;;;;6.30;5.20;;;;;;;31.41;35.87;101045.27;107638;1247;60873;-76
2022/06/29 08:15:49;;;;;;;5.90;4.90;;;;;;;31.41;35.79;101043.40;107736;1247;60010;-76
2022/06/29 08:18:18;;;;;;;7.50;5.00;;;;;;;31.41;36.04;101034.27;107493;1249;62274;-77
2022/06/29 08:20:48;;;;;;;6.80;5.10;;;;;;;31.52;35.85;101037.29;107398;1251;59577;-78
2022/06/29 08:23:16;;;;;;;8.50;5.00;;;;;;;31.65;35.76;101038.66;107765;1247;59593;-72
2022/06/29 08:25:46;;;;;;;11.20;5.10;;;;;;;31.65;35.52;101044.27;107510;1249;63015;-76
2022/06/29 08:28:35;;;;;;;5.70;5.10;;;;;;;31.76;35.43;101040.27;107482;1251;60673;-73
2022/06/29 08:31:04;;;;;;;6.00;4.90;;;;;;;31.86;35.13;101040.08;107757;1247;59985;-76
2022/06/29 08:33:33;;;;;;;6.20;5.00;;;;;;;31.94;34.91;101042.48;107712;1248;62456;-77
2022/06/29 08:36:02;;;;;;;5.70;4.60;;;;;;;31.95;35.09;101035.64;107631;1247;60478;-75
2022/06/29 08:38:31;;;;;;;7.90;5.10;;;;;;;32.08;34.87;101039.64;107739;1247;62959;-76
2022/06/29 08:41:00;;;;;;;7.30;4.70;;;;;;;32.19;34.59;101041.38;107367;1251;65829;-77
2022/06/29 08:43:29;;;;;;;5.00;4.50;;;;;;;32.38;34.51;101033.10;107410;1248;61651;-74
2022/06/29 08:45:58;;;;;;;6.00;4.60;;;;;;;32.41;33.80;101031.21;107538;1247;59007;-76
2022/06/29 08:48:28;;;;;;;7.30;5.10;;;;;;;32.30;33.65;101031.63;107592;1247;73138;-74
2022/06/29 08:50:57;;;;;;;6.40;4.80;;;;;;;32.49;33.75;101029.92;107610;1247;61140;-75
2022/06/29 08:53:26;;;;;;;6.90;5.20;;;;;;;32.37;33.86;101029.30;107592;1247;59612;-74
2022/06/29 08:55:58;;;;;;;7.50;4.90;;;;;;;32.33;33.64;101027.52;107542;1247;72680;-76
2022/06/29 08:58:27;;;;;;;14.20;5.40;;;;;;;32.34;33.76;101024.70;107519;1247;62119;-77
2022/06/29 09:00:56;;;;;;;6.40;5.50;;;;;;;32.45;33.39;101024.78;107601;1248;59878;-78
2022/06/29 09:03:25;;;;;;;10.50;5.30;;;;;;;32.44;33.28;101025.30;107422;1249;72433;-77
2022/06/29 09:05:55;;;;;;;8.30;5.70;;;;;;;32.41;33.61;101022.44;107666;1247;61309;-74
2022/06/29 09:08:24;;;;;;;8.60;5.70;;;;;;;32.66;33.22;101015.82;107404;1248;60390;-73
2022/06/29 09:10:53;;;;;;;9.10;5.30;;;;;;;32.94;32.95;101014.69;107621;1247;74041;-75
2022/06/29 09:13:24;;;;;;;6.90;4.40;;;;;;;33.00;32.58;101016.60;107522;1248;72586;-75
2022/06/29 09:15:59;;;;;;;8.20;5.40;;;;;;;32.91;32.35;101012.16;107536;1248;60192;-77
2022/06/29 09:18:33;;;;;;;11.30;5.80;;;;;;;33.18;32.45;101008.26;107662;1247;62475;-77
2022/06/29 09:21:05;;;;;;;13.00;5.30;;;;;;;33.46;32.12;101005.73;107479;1247;61305;-75
2022/06/29 09:23:35;;;;;;;10.10;5.60;;;;;;;33.55;32.01;101002.98;107692;1247;59622;-78
2022/06/29 09:26:04;;;;;;;6.60;5.20;;;;;;;33.61;31.88;101004.52;107500;1248;71997;-77
2022/06/29 09:28:34;;;;;;;8.70;5.70;;;;;;;33.54;31.74;101005.58;107513;1248;72814;-74
2022/06/29 09:31:06;;;;;;;8.80;5.30;;;;;;;33.60;31.86;101002.38;107699;1247;71166;-80
2022/06/29 09:33:34;;;;;;;;;;;;;;;33.84;32.00;101002.54;107482;1248;74102;-76
2022/06/29 09:36:14;;;;;;;7.20;5.20;;;;;;;34.02;31.69;100999.19;107632;1247;59533;-78
2022/06/29 09:38:44;;;;;;;7.00;5.40;;;;;;;34.21;31.05;101000.56;107355;1247;61553;-79
2022/06/29 09:41:15;;;;;;;6.90;4.70;;;;;;;34.39;30.60;100997.33;107653;1247;75049;-79
2022/06/29 09:43:46;;;;;;;8.90;5.30;;;;;;;34.24;30.55;100995.81;107438;1247;72761;-76
2022/06/29 09:46:16;;;;;;;6.50;5.10;;;;;;;33.92;30.82;100994.23;107613;1248;70919;-78
2022/06/29 09:48:45;;;;;;;9.30;5.50;;;;;;;33.98;30.87;100991.08;107610;1248;74375;-78
2022/06/29 09:51:33;;;;;;;6.30;5.20;;;;;;;33.93;30.99;100992.50;107497;1247;58293;-80
2022/06/29 09:54:06;;;;;;;6.30;4.90;;;;;;;33.95;31.33;100990.24;107645;1247;59203;-77
2022/06/29 09:56:47;;;;;;;5.10;4.20;;;;;;;34.20;30.70;100987.05;107542;1247;73796;-81
2022/06/29 10:02:45;;;;;;;5.90;4.60;;;;;;;34.40;30.11;100984.85;107631;1247;69077;-77
2022/06/29 10:05:20;;;;;;;10.10;4.40;;;;;;;34.68;29.47;100983.28;107388;1247;73571;-77
2022/06/29 10:07:55;;;;;;;8.00;4.60;;;;;;;34.65;28.88;100979.36;107645;1247;58567;-80
2022/06/29 10:10:26;;;;;;;5.80;4.30;;;;;;;35.00;28.71;100975.97;107655;1247;60426;-78
2022/06/29 10:13:39;;;;;;;6.30;4.70;;;;;;;35.08;28.24;100975.14;107451;1248;74585;-78
2022/06/29 10:16:49;;;;;;;5.90;4.10;;;;;;;34.97;28.22;100972.34;107656;1247;61535;-76
2022/06/29 10:19:30;;;;;;;5.20;3.90;;;;;;;35.14;27.95;100969.77;107407;1248;70595;-76
2022/06/29 10:21:59;;;;;;;5.70;4.40;;;;;;;35.08;27.70;100966.61;107714;1247;74215;-77
2022/06/29 10:24:30;;;;;;;5.90;4.00;;;;;;;35.16;27.82;100972.06;107613;1248;59579;-74
2022/06/29 10:27:06;;;;;;;4.50;4.10;;;;;;;35.38;27.61;100968.04;107633;1247;59960;-77
2022/06/29 10:29:36;;;;;;;4.30;3.60;;;;;;;35.48;27.36;100964.96;107346;1248;63771;-80
2022/06/29 10:32:07;;;;;;;7.20;4.20;;;;;;;35.50;27.02;100965.62;107381;1248;62628;-77
2022/06/29 10:35:05;;;;;;;6.60;4.00;;;;;;;35.05;26.88;100968.70;107385;1247;59514;-78
2022/06/29 10:37:28;;;;;;;5.30;3.90;;;;;;;34.66;27.33;100963.02;107643;1247;63277;-79
2022/06/29 10:40:01;;;;;;;4.70;3.60;;;;;;;34.88;27.42;100957.74;107661;1247;59608;-76
2022/06/29 10:45:45;;;;;;;3.90;3.50;;;;;;;35.11;26.83;100959.15;107624;1247;74349;-78
2022/06/29 10:48:16;;;;;;;5.40;3.50;;;;;;;35.09;26.75;100958.84;107558;1248;72616;-76
2022/06/29 10:50:45;;;;;;;7.50;4.30;;;;;;;35.22;26.90;100954.33;107521;1247;70021;-79
2022/06/29 10:53:18;;;;;;;4.70;3.60;;;;;;;35.49;26.65;100951.66;107513;1247;62844;-73
2022/06/29 10:55:54;;;;;;;4.20;3.80;;;;;;;36.14;26.18;100947.54;107672;1245;60372;-75
2022/06/29 10:58:24;;;;;;;8.00;4.20;;;;;;;36.84;25.79;100950.10;107585;1247;61809;-78
2022/06/29 11:00:54;;;;;;;5.80;4.00;;;;;;;36.75;24.95;100958.14;107592;1247;73424;-75
2022/06/29 11:03:26;;;;;;;6.90;3.70;;;;;;;36.65;25.23;100953.83;107592;1247;63230;-76
2022/06/29 11:20:20;;;;;;;7.30;4.00;;;;;;;37.81;22.36;100942.63;107695;1247;71223;-78
2022/06/29 11:22:53;;;;;;;3.50;3.20;;;;;;;37.63;22.70;100940.15;107482;1250;59719;-81
2022/06/29 11:25:22;;;;;;;5.70;4.10;;;;;;;37.76;22.83;100937.30;107627;1247;62532;-78
2022/06/29 11:27:51;;;;;;;7.00;3.70;;;;;;;38.38;22.39;100932.17;107349;1248;59577;-78
2022/06/29 11:30:23;;;;;;;5.80;3.50;;;;;;;38.64;22.13;100939.99;107362;1247;58577;-79
2022/06/29 11:32:51;;;;;;;4.00;3.60;;;;;;;38.25;22.41;100934.21;107545;1247;64584;-79
2022/06/29 11:35:23;;;;;;;5.90;3.60;;;;;;;39.20;21.49;100928.16;107632;1247;61566;-72
2022/06/29 11:37:57;;;;;;;5.00;3.40;;;;;;;40.11;20.92;100927.16;107532;1247;70528;-73
2022/06/29 11:40:35;;;;;;;5.30;3.40;;;;;;;39.96;20.41;100930.09;107411;1248;74246;-74
2022/06/29 11:43:13;;;;;;;4.50;3.40;;;;;;;39.61;21.02;100930.53;107699;1247;60587;-76
2022/06/29 11:45:46;;;;;;;5.00;3.10;;;;;;;39.77;20.56;100924.52;107570;1247;62094;-78
2022/06/29 11:48:26;;;;;;;4.60;3.10;;;;;;;39.46;21.03;100923.84;107632;1247;65435;-79
2022/06/29 11:51:01;;;;;;;4.30;3.20;;;;;;;39.91;20.32;100916.31;107612;1247;70732;-80
2022/06/29 11:53:53;;;;;;;5.60;3.30;;;;;;;40.48;19.98;100914.29;107759;1247;70246;-80